ADDS METAR Data INFO
IDs: Format: Raw Decoded Include TAF

Data at: 0212 UTC 14 Dec 2017

KMTV 140155Z AUTO 20003KT 10SM CLR 02/M10 A2970 RMK AO2 T00211105
KMTV 140135Z AUTO 21003KT 10SM CLR 02/M11 A2970 RMK AO2 T00191109
KMTV 140115Z AUTO 00000KT 10SM CLR 02/M11 A2970 RMK AO2 T00221114
KMTV 140055Z AUTO 18003KT 10SM CLR 03/M11 A2971 RMK AO2 T00251114
KMTV 140035Z AUTO 00000KT 10SM SCT085 SCT120 03/M11 A2972 RMK AO2 T00281115
KMTV 140015Z AUTO 20005KT 10SM BKN085 BKN120 03/M11 A2973 RMK AO2 T00281114
KMTV 132355Z AUTO 19004KT 10SM SCT085 03/M12 A2974 RMK AO2 T00301117 10045 20017
KMTV 132335Z AUTO 20005KT 10SM SCT110 03/M12 A2975 RMK AO2 T00301116
KMTV 132315Z AUTO 21005KT 10SM SCT080 BKN110 03/M11 A2976 RMK AO2 T00251111
KMTV 132255Z AUTO 20004KT 10SM SCT080 02/M11 A2976 RMK AO2 T00181114
KMTV 132235Z AUTO 21003KT 10SM CLR 02/M11 A2976 RMK AO2 T00211115
KMTV 132215Z AUTO 19003KT 10SM CLR 02/M11 A2976 RMK AO2 T00241114
KMTV 132155Z AUTO 00000KT 10SM CLR 03/M12 A2976 RMK AO2 T00301116
KMTV 132135Z AUTO 20004KT 10SM CLR 04/M12 A2977 RMK AO2 T00371118
KMTV 132115Z AUTO 22007KT 10SM CLR 04/M12 A2978 RMK AO2 T00401121
KMTV 132055Z AUTO 22004KT 10SM CLR 04/M12 A2980 RMK AO2 T00421121
KMTV 132035Z AUTO 22004KT 10SM CLR 04/M12 A2982 RMK AO2 T00431122
KMTV 132015Z AUTO 22005KT 10SM CLR 04/M13 A2982 RMK AO2 T00431129
KMTV 131955Z AUTO 24005KT 10SM CLR 04/M13 A2983 RMK AO2 T00401134
KMTV 131935Z AUTO 25003KT 10SM CLR 04/M14 A2984 RMK AO2 T00411137
KMTV 131915Z AUTO 26008KT 220V280 10SM CLR 04/M14 A2985 RMK AO2 T00401141
KMTV 131855Z AUTO 24007KT 210V290 10SM CLR 04/M14 A2986 RMK AO2 T00351144
KMTV 131835Z AUTO 26008G14KT 10SM CLR 03/M14 A2988 RMK AO2 T00311145
KMTV 131815Z AUTO 25007KT 220V290 10SM CLR 03/M15 A2987 RMK AO2 T00281146
KMTV 131755Z AUTO 22009G15KT 190V250 10SM CLR 02/M15 A2989 RMK AO2 T00231149 10025 21092
KMTV 131735Z AUTO 21006KT 170V250 10SM CLR 02/M15 A2989 RMK AO2 T00201155
KMTV 131715Z AUTO 25007KT 10SM CLR 02/M15 A2990 RMK AO2 T00181155
KMTV 131655Z AUTO 29004KT 10SM CLR 01/M16 A2992 RMK AO2 T00111164
KMTV 131635Z AUTO 25004KT 10SM CLR 01/M16 A2993 RMK AO2 T00101161
KMTV 131615Z AUTO 00000KT 10SM CLR 01/M16 A2994 RMK AO2 T00051165
KMTV 131555Z AUTO 23008KT 10SM CLR 00/M18 A2996 RMK AO2 T10011177
KMTV 131535Z AUTO 26005KT 10SM CLR 00/M18 A2996 RMK AO2 T10051181
KMTV 131515Z AUTO 22004KT 10SM CLR M01/M18 A2996 RMK AO2 T10101184
KMTV 131455Z AUTO 25007KT 220V290 10SM CLR M02/M18 A2997 RMK AO2 T10161185
KMTV 131435Z AUTO 25004KT 10SM CLR M02/M18 A2996 RMK AO2 T10241181
KMTV 131415Z AUTO 28005KT 10SM CLR M03/M17 A2996 RMK AO2 T10301167
KMTV 131355Z AUTO 28003KT 10SM CLR M04/M16 A2997 RMK AO2 T10361157
KMTV 131335Z AUTO 25004KT 10SM CLR M05/M15 A2996 RMK AO2 T10461150
KMTV 131315Z AUTO 23003KT 10SM CLR M06/M14 A2996 RMK AO2 T10581144
KMTV 131255Z AUTO 00000KT 10SM CLR M08/M13 A2996 RMK AO2 T10781129
KMTV 131235Z AUTO 00000KT 10SM CLR M09/M13 A2995 RMK AO2 T10911134
KMTV 131215Z AUTO 00000KT 10SM CLR M09/M14 A2995 RMK AO2 T10861138
KMTV 131155Z AUTO 00000KT 10SM CLR M08/M14 A2995 RMK AO2 T10841136 11034 21085
KMTV 131135Z AUTO 00000KT 10SM CLR M08/M14 A2993 RMK AO2 T10801137
KMTV 131115Z AUTO 00000KT 10SM CLR M08/M13 A2992 RMK AO2 T10841135
KMTV 131055Z AUTO 00000KT 10SM CLR M08/M14 A2992 RMK AO2 T10791140
KMTV 131035Z AUTO 00000KT 10SM CLR M07/M14 A2990 RMK AO2 T10721137
KMTV 131015Z AUTO 00000KT 10SM CLR M07/M14 A2990 RMK AO2 T10661143
KMTV 130955Z AUTO 00000KT 10SM CLR M06/M15 A2989 RMK AO2 T10571150
KMTV 130935Z AUTO 00000KT 10SM CLR M05/M15 A2989 RMK AO2 T10541153
KMTV 130915Z AUTO 00000KT 10SM CLR M05/M15 A2989 RMK AO2 T10551153
KMTV 130855Z AUTO 31006KT 10SM CLR M05/M15 A2987 RMK AO2 T10551153
KMTV 130835Z AUTO 31004KT 10SM CLR M05/M15 A2988 RMK AO2 T10501152
KMTV 130815Z AUTO 32014KT 10SM CLR M04/M15 A2987 RMK AO2 T10441150
KMTV 130755Z AUTO 31007KT 10SM CLR M05/M14 A2987 RMK AO2 T10511145
KMTV 130735Z AUTO 32007KT 10SM CLR M05/M14 A2985 RMK AO2 T10491145
KMTV 130715Z AUTO 32007KT 10SM CLR M04/M14 A2985 RMK AO2 T10421145
KMTV 130655Z AUTO 32014G21KT 10SM CLR M04/M14 A2985 RMK AO2 T10371144
KMTV 130635Z AUTO 31012G18KT 10SM SCT048 SCT050 M03/M14 A2984 RMK AO2 T10351141
KMTV 130615Z AUTO 31011G14KT 270V340 10SM BKN050 BKN055 M03/M14 A2984 RMK AO2 T10351138
KMTV 130555Z AUTO 32011G15KT 10SM OVC050 M03/M14 A2984 RMK AO2 T10351140 11004 21035 400861035
KMTV 130530Z AUTO 32013KT 10SM SCT050 M03/M14 A2985 RMK AO2 T10321142
KMTV 130515Z AUTO 32009KT 10SM SCT050 M03/M14 A2985 RMK AO2 T10321142
KMTV 130455Z AUTO 32013G20KT 10SM BKN050 M03/M14 A2985 RMK AO2 T10321140
KMTV 130435Z AUTO 33016G19KT 10SM SCT046 BKN050 M03/M14 A2985 RMK AO2 T10301136
KMTV 130415Z AUTO 32017G23KT 10SM OVC050 M03/M13 A2985 RMK AO2 T10281135
KMTV 130355Z AUTO 33018G28KT 10SM BKN050 M03/M14 A2984 RMK AO2 T10271136
KMTV 130335Z AUTO 33017G24KT 10SM SCT055 M03/M13 A2985 RMK AO2 T10271135
KMTV 130315Z AUTO 32014G22KT 10SM CLR M03/M14 A2985 RMK AO2 T10261138
KMTV 130255Z AUTO 32007G22KT 10SM CLR M02/M14 A2984 RMK AO2 T10251145
KMTV 130235Z AUTO 32012G22KT 10SM SCT060 M02/M14 A2983 RMK AO2 T10211144
KMTV 130215Z AUTO 32011KT 10SM SCT060 M02/M13 A2982 RMK AO2 T10241134
KMTV 130155Z AUTO 32015G27KT 10SM SCT060 M02/M13 A2982 RMK AO2 T10161135
KMTV 130135Z AUTO 33015G19KT 10SM BKN060 M01/M13 A2982 RMK AO2 T10151127
KMTV 130115Z AUTO 32015G19KT 10SM BKN060 BKN070 M01/M12 A2982 RMK AO2 T10111117
KMTV 130055Z AUTO 33018G23KT 10SM BKN060 BKN070 00/M12 A2981 RMK AO2 T10051117
KMTV 130035Z AUTO 31008G15KT 10SM SCT048 SCT060 M01/M11 A2981 RMK AO2 T10091106
KMTV 130015Z AUTO 32012G16KT 10SM SCT049 SCT060 00/M10 A2980 RMK AO2 T10041102
KMTV 122355Z AUTO 32011G15KT 10SM CLR M01/M09 A2980 RMK AO2 T10061089 10079 21006
KMTV 122335Z AUTO 31010G18KT 10SM CLR 00/M09 A2979 RMK AO2 LTG DSNT SE T10041086
KMTV 122315Z AUTO 32014G23KT 10SM SCT045 SCT055 00/M08 A2978 RMK AO2 T10021084
KMTV 122255Z AUTO 32018G27KT 10SM CLR 01/M10 A2977 RMK AO2 T00121105
KMTV 122235Z AUTO 31013G23KT 10SM SCT050 SCT080 02/M11 A2974 RMK AO2 T00171109
KMTV 122215Z AUTO 31011G22KT 10SM BKN050 BKN070 BKN080 02/M08 A2974 RMK AO2 T00221083
KMTV 122155Z AUTO 33017G23KT 10SM BKN050 BKN080 04/M07 A2972 RMK AO2 T00361072
KMTV 122135Z AUTO 31011G20KT 10SM SCT047 BKN060 BKN080 04/M05 A2970 RMK AO2 LTG DSNT SE T00411054
KMTV 122115Z AUTO 32013G16KT 10SM SCT049 OVC080 05/M04 A2969 RMK AO2 T00451039
KMTV 122055Z AUTO 32011G16KT 10SM SCT049 OVC065 05/M03 A2968 RMK AO2 T00481034
KMTV 122035Z AUTO 32012G17KT 10SM SCT049 BKN060 OVC080 05/M03 A2967 RMK AO2 LTG DSNT SE T00521032
KMTV 122015Z AUTO 30006KT 10SM OVC070 07/M04 A2965 RMK AO2 T00651045
KMTV 121955Z AUTO 30007G18KT 270V330 10SM SCT060 BKN070 BKN080 07/M04 A2965 RMK AO2 T00671040
KMTV 121935Z AUTO 30009G14KT 260V320 10SM SCT060 BKN065 BKN080 07/M03 A2965 RMK AO2 T00691035
KMTV 121915Z AUTO 30008G22KT 250V330 10SM SCT048 BKN060 OVC070 07/M03 A2965 RMK AO2 T00701035
KMTV 121855Z AUTO 31011G16KT 10SM OVC048 07/M02 A2965 RMK AO2 T00741022
KMTV 121835Z AUTO 30005KT 10SM BKN050 OVC060 07/M03 A2965 RMK AO2 T00731030
KMTV 121815Z AUTO 31007KT 10SM SCT050 BKN065 OVC070 08/M02 A2966 RMK AO2 T00761025
KMTV 121755Z AUTO 30005KT 10SM OVC060 08/M03 A2966 RMK AO2 T00751027 10086 21015
KMTV 121735Z AUTO 28008KT 250V330 10SM OVC060 08/M02 A2967 RMK AO2 T00771024
KMTV 121715Z AUTO 29005G16KT 10SM OVC050 08/M02 A2967 RMK AO2 T00761022
KMTV 121655Z AUTO 31013G21KT 270V330 10SM OVC050 08/M02 A2967 RMK AO2 T00761022
KMTV 121635Z AUTO 00000KT 10SM OVC050 08/M01 A2968 RMK AO2 T00781012
KMTV 121615Z AUTO 00000KT 10SM OVC050 07/M01 A2969 RMK AO2 T00711009
KMTV 121555Z AUTO 31003KT 10SM OVC050 08/00 A2970 RMK AO2 T00781003
KMTV 121535Z AUTO 30003KT 10SM BKN050 BKN060 07/00 A2970 RMK AO2 T00721001
KMTV 121515Z AUTO 00000KT 10SM SCT050 BKN120 06/00 A2971 RMK AO2 T00631001
KMTV 121455Z AUTO 00000KT 10SM BKN120 05/00 A2971 RMK AO2 T00471002
KMTV 121435Z AUTO 24004KT 10SM BKN120 01/00 A2971 RMK AO2 T00130000
KMTV 121415Z AUTO 21003KT 10SM BKN120 01/00 A2971 RMK AO2 T00051005